CYVRCYYF

Guest
Details From CYVR - Vancouver Intl
To CYYF - Penticton
Flight Number -
Tags Decoded
Created
Modified
Stats Distance 142 nm / 263 km
Max Altitude 0 ft / 0 m
Waypoints 2
Social Downloads 6
Likes 0
Share VATSIM

Download

Looking for another format? Having issues loading an existing format? Contact us
Advertisement - Login to hide

Notes

Decoded

Route

CYVR CYYF

ID Type Via Altitude Latitude Longitude Leg Dist Tot Dist Heading (true) Name
O CYVR APT - 0 ft / 0 m 49.20509˚ -123.20131˚ - 0 nm - -
O CYYF APT - 0 ft / 0 m 49.46944˚ -119.60083˚ 141 nm 141 nm 82° / 85° -

Altitude Profile

Advertisement - Login to hide

CYVR

Details ICAO CYVR (YVR)
Name Vancouver Intl
Region Canada
Timezone America/Vancouver (UTC-7.0)
Stats Elevation 14 ft / 4 m (AMSL)
Location 49.192331° -123.187993°
Runways 4
Magnetic Variation 16.197° E

METAR

CYVR 262100Z 11007KT 090V150 30SM FEW031 FEW075 SCT150 OVC230 18/09 A3014 RMK CU1AC1AC2CS5 AC TR SLP208 DENSITY ALT 200FT

Decode

TAF

TAF CYVR 262038Z 2621/2724 15008KT P6SM FEW030 FEW070 BKN220 BECMG 2621/2623 20008KT FM262300 20008KT P6SM SCT070 SCT100 BKN220 BECMG 2703/2705 10008KT FM270600 10008KT P6SM BKN060 BKN100 RMK NXT FCST BY 270000Z

Decode

Departure Runways

ID Width Length Bearing (true) Bearing (mag) Surface Threshold Offset Overrun Length
08 75 ft / 23 m 3,497 ft / 1,066 m 100.01° 83.81° Concrete 0 ft / 0 m 0 ft / 0 m
08L 200 ft / 61 m 9,910 ft / 3,021 m 99.80° 83.60° Concrete 0 ft / 0 m 0 ft / 0 m
08R 200 ft / 61 m 11,491 ft / 3,502 m 99.94° 83.74° Asphalt 0 ft / 0 m 0 ft / 0 m
12 200 ft / 61 m 7,291 ft / 2,222 m 141.91° 125.71° Asphalt 0 ft / 0 m 0 ft / 0 m
26 75 ft / 23 m 3,497 ft / 1,066 m 280.02° 263.82° Concrete 0 ft / 0 m 0 ft / 0 m
26L 200 ft / 61 m 11,491 ft / 3,502 m 279.97° 263.77° Asphalt 0 ft / 0 m 0 ft / 0 m
26R 200 ft / 61 m 9,910 ft / 3,021 m 279.83° 263.63° Concrete 0 ft / 0 m 0 ft / 0 m
30 200 ft / 61 m 7,291 ft / 2,222 m 321.93° 305.73° Asphalt 0 ft / 0 m 0 ft / 0 m

CYYF

Details ICAO CYYF (YYF)
Name PENTICTON
Region Canada
Timezone America/Vancouver (UTC-7.0)
Stats Elevation 1,129 ft / 344 m (AMSL)
Location 49.461250° -119.601385°
Runways 1
Magnetic Variation 15.506° E

METAR

CYYF 262100Z 01006KT 330V050 15SM FEW100 BKN250 25/07 A2989 RMK AC1CI6 AC TR SLP121 DENSITY ALT 2700FT

Decode

TAF

TAF CYYF 261838Z 2619/2707 34005KT P6SM FEW090 SCT240 BECMG 2619/2621 35010KT RMK NXT FCST BY 270100Z

Decode

Destination Runways

ID Width Length Bearing (true) Bearing (mag) Surface Threshold Offset Overrun Length
16 148 ft / 45 m 5,986 ft / 1,825 m 182.52° 167.01° Asphalt 0 ft / 0 m 0 ft / 0 m
34 148 ft / 45 m 5,986 ft / 1,825 m 2.52° 347.01° Asphalt 300 ft / 91 m 0 ft / 0 m

Approach Navaids

Runway Type Ident Frequency Range Bearing (true) Bearing (mag) Slope Elevation
16 Localiser XYF 110.30 MHz 18 nm / 33 km 180.00° 164.49° - 1,116 ft / 340 m (AMSL)

Popular Alternatives